Aérodrome :
LOGIN :

S'inscrire | Disclaimer

   EN    FR    IT 

 










Légende :    VFR   VFR Marginal   IFR   IFR Intensif   IFR Très Intensif
Visi : 
Plafond : 
>= 8 km
>= 3000ft
5 à 8 km
1000 à 3000 ft
1500m à 5 km
500 à 1000 ft
800 à 1500m
200 à 500 ft
< 800m
< 200 ft
Symboles :   Orages  Brouillard  Fortes neiges  Fortes précipitations  Vent > 20 kt
SIGMETs :   Divers  Orages  Givrage  Turbulence  Onde Orograph.  Cendres Volcan.






- Altitude de l'aérodrome : 184 ft
- Code IATA : NLV


UKON - Mykolaiv

DERNIER METAR :
  • 221300Z 29008MPS CAVOK 08/M08 Q1014 R22/090075 NOSIG

METARs EXPIRÉS :
  • 221212Z 31009G14MPS CAVOK 09/M06 Q1015 R22/090075 NOSIG
  • 221100Z 29008MPS 250V320 CAVOK 07/M04 Q1016 R22/090075 NOSIG

TAF TAF UKON
Valide du 22 à 12h jusqu'au 22 à 21h UTC


221103Z 2212/2221 29009G17MPS 6000 BKN007 SCT020CB TX07/2213Z TN02/2221Z
TEMPO 2212/2221 2100 -SHRA BKN003 BKN015CB



MET'MAP, la Météo Aéronautique d'un coup d'oeil ! - Copyright ORBIFLY Décembre 2007 - Disclaimer

ORBIFLY MET'MAP TEAM :

Programmation & Développement : Alexandra Zaïnal
Sur une idée originale de : Baudouin d'Aumeries
Assistance à la programmation : Marc-Olivier Méhu
Soutien technique & logistique : Manuel Goepfert

Contact : metmap@orbifly.com




SOURCES & CREDITS :

   NOAA